sensor_id;sensor_type;location;lat;lon;timestamp;temperature;humidity
25342;DHT22;13298;48.792;9.154;2023-03-03T00:01:09;0.90;99.90
25342;DHT22;13298;48.792;9.154;2023-03-03T00:03:35;0.90;99.90
25342;DHT22;13298;48.792;9.154;2023-03-03T00:06:02;0.80;99.90
25342;DHT22;13298;48.792;9.154;2023-03-03T00:08:29;0.80;99.90
25342;DHT22;13298;48.792;9.154;2023-03-03T00:10:57;0.70;99.90
25342;DHT22;13298;48.792;9.154;2023-03-03T00:13:26;0.70;99.90
25342;DHT22;13298;48.792;9.154;2023-03-03T00:15:53;0.60;99.90
25342;DHT22;13298;48.792;9.154;2023-03-03T00:18:24;0.60;99.90
25342;DHT22;13298;48.792;9.154;2023-03-03T00:20:55;0.60;99.90
25342;DHT22;13298;48.792;9.154;2023-03-03T00:23:35;0.60;99.90
25342;DHT22;13298;48.792;9.154;2023-03-03T00:28:53;0.60;99.90
25342;DHT22;13298;48.792;9.154;2023-03-03T00:31:33;0.50;99.90
25342;DHT22;13298;48.792;9.154;2023-03-03T00:34:24;0.50;99.90
25342;DHT22;13298;48.792;9.154;2023-03-03T00:36:53;0.50;99.90
25342;DHT22;13298;48.792;9.154;2023-03-03T00:39:36;0.60;99.90
25342;DHT22;13298;48.792;9.154;2023-03-03T00:42:15;0.60;99.90
25342;DHT22;13298;48.792;9.154;2023-03-03T00:44:42;0.60;99.90
25342;DHT22;13298;48.792;9.154;2023-03-03T00:47:17;0.60;99.90
25342;DHT22;13298;48.792;9.154;2023-03-03T00:49:55;0.70;99.90
25342;DHT22;13298;48.792;9.154;2023-03-03T00:52:44;0.60;99.90
25342;DHT22;13298;48.792;9.154;2023-03-03T00:55:12;0.60;99.90
25342;DHT22;13298;48.792;9.154;2023-03-03T00:57:37;0.50;99.90
25342;DHT22;13298;48.792;9.154;2023-03-03T01:00:04;0.50;99.90
25342;DHT22;13298;48.792;9.154;2023-03-03T01:02:30;0.50;99.90
25342;DHT22;13298;48.792;9.154;2023-03-03T01:04:55;0.40;99.90
25342;DHT22;13298;48.792;9.154;2023-03-03T01:07:21;0.50;99.90
25342;DHT22;13298;48.792;9.154;2023-03-03T01:09:47;0.50;99.90
25342;DHT22;13298;48.792;9.154;2023-03-03T01:12:13;0.50;99.90
25342;DHT22;13298;48.792;9.154;2023-03-03T01:14:39;0.50;99.90
25342;DHT22;13298;48.792;9.154;2023-03-03T01:17:05;0.50;99.90
25342;DHT22;13298;48.792;9.154;2023-03-03T01:19:31;0.50;99.90
25342;DHT22;13298;48.792;9.154;2023-03-03T01:21:57;0.40;99.90
25342;DHT22;13298;48.792;9.154;2023-03-03T01:24:23;0.40;99.90
25342;DHT22;13298;48.792;9.154;2023-03-03T01:26:48;0.40;99.90
25342;DHT22;13298;48.792;9.154;2023-03-03T01:29:14;0.40;99.90
25342;DHT22;13298;48.792;9.154;2023-03-03T01:31:40;0.40;99.90
25342;DHT22;13298;48.792;9.154;2023-03-03T01:34:05;0.40;99.90
25342;DHT22;13298;48.792;9.154;2023-03-03T01:36:32;0.30;99.90
25342;DHT22;13298;48.792;9.154;2023-03-03T01:38:58;0.30;99.90
25342;DHT22;13298;48.792;9.154;2023-03-03T01:41:28;0.30;99.90
25342;DHT22;13298;48.792;9.154;2023-03-03T01:43:57;0.20;99.90
25342;DHT22;13298;48.792;9.154;2023-03-03T01:46:45;0.30;99.90
25342;DHT22;13298;48.792;9.154;2023-03-03T01:49:53;0.20;99.90
25342;DHT22;13298;48.792;9.154;2023-03-03T01:52:42;0.20;99.90
25342;DHT22;13298;48.792;9.154;2023-03-03T01:55:17;0.30;99.90
25342;DHT22;13298;48.792;9.154;2023-03-03T01:57:51;0.20;99.90
25342;DHT22;13298;48.792;9.154;2023-03-03T02:00:21;0.30;99.90
25342;DHT22;13298;48.792;9.154;2023-03-03T02:02:47;0.20;99.90
25342;DHT22;13298;48.792;9.154;2023-03-03T02:05:15;0.20;99.90
25342;DHT22;13298;48.792;9.154;2023-03-03T02:07:41;0.20;99.90
25342;DHT22;13298;48.792;9.154;2023-03-03T02:10:10;0.20;99.90
25342;DHT22;13298;48.792;9.154;2023-03-03T02:12:56;0.20;99.90
25342;DHT22;13298;48.792;9.154;2023-03-03T02:15:33;0.20;99.90
25342;DHT22;13298;48.792;9.154;2023-03-03T02:18:20;0.20;99.90
25342;DHT22;13298;48.792;9.154;2023-03-03T02:26:44;0.20;99.90
25342;DHT22;13298;48.792;9.154;2023-03-03T02:29:10;0.30;99.90
25342;DHT22;13298;48.792;9.154;2023-03-03T02:31:36;0.30;99.90
25342;DHT22;13298;48.792;9.154;2023-03-03T02:34:03;0.30;99.90
25342;DHT22;13298;48.792;9.154;2023-03-03T02:36:34;0.30;99.90
25342;DHT22;13298;48.792;9.154;2023-03-03T02:39:09;0.20;99.90
25342;DHT22;13298;48.792;9.154;2023-03-03T02:44:23;0.10;99.90
25342;DHT22;13298;48.792;9.154;2023-03-03T02:46:52;0.10;99.90
25342;DHT22;13298;48.792;9.154;2023-03-03T02:49:22;0.10;99.90
25342;DHT22;13298;48.792;9.154;2023-03-03T02:51:49;0.10;99.90
25342;DHT22;13298;48.792;9.154;2023-03-03T02:54:17;0.10;99.90
25342;DHT22;13298;48.792;9.154;2023-03-03T02:56:43;0.20;99.90
25342;DHT22;13298;48.792;9.154;2023-03-03T02:59:10;0.30;99.90
25342;DHT22;13298;48.792;9.154;2023-03-03T03:01:36;0.40;99.90
25342;DHT22;13298;48.792;9.154;2023-03-03T03:04:09;0.50;99.90
25342;DHT22;13298;48.792;9.154;2023-03-03T03:06:37;0.60;99.90
25342;DHT22;13298;48.792;9.154;2023-03-03T03:09:04;0.70;99.90
25342;DHT22;13298;48.792;9.154;2023-03-03T03:11:31;0.80;99.90
25342;DHT22;13298;48.792;9.154;2023-03-03T03:13:57;0.90;99.90
25342;DHT22;13298;48.792;9.154;2023-03-03T03:16:23;0.90;99.90
25342;DHT22;13298;48.792;9.154;2023-03-03T03:18:48;1.00;99.90
25342;DHT22;13298;48.792;9.154;2023-03-03T03:21:17;1.10;99.90
25342;DHT22;13298;48.792;9.154;2023-03-03T03:23:43;1.10;99.90
25342;DHT22;13298;48.792;9.154;2023-03-03T03:26:09;1.20;99.90
25342;DHT22;13298;48.792;9.154;2023-03-03T03:28:35;1.20;99.90
25342;DHT22;13298;48.792;9.154;2023-03-03T03:31:02;1.20;99.90
25342;DHT22;13298;48.792;9.154;2023-03-03T03:33:29;1.20;99.90
25342;DHT22;13298;48.792;9.154;2023-03-03T03:35:56;1.20;99.90
25342;DHT22;13298;48.792;9.154;2023-03-03T03:38:23;1.30;99.90
25342;DHT22;13298;48.792;9.154;2023-03-03T03:40:51;1.20;99.90
25342;DHT22;13298;48.792;9.154;2023-03-03T03:43:17;1.30;99.90
25342;DHT22;13298;48.792;9.154;2023-03-03T03:45:43;1.20;99.90
25342;DHT22;13298;48.792;9.154;2023-03-03T03:48:09;1.20;99.90
25342;DHT22;13298;48.792;9.154;2023-03-03T03:50:35;1.20;99.90
25342;DHT22;13298;48.792;9.154;2023-03-03T03:53:02;1.20;99.90
25342;DHT22;13298;48.792;9.154;2023-03-03T03:55:28;1.20;99.90
25342;DHT22;13298;48.792;9.154;2023-03-03T03:57:55;1.20;99.90
25342;DHT22;13298;48.792;9.154;2023-03-03T04:00:21;1.10;99.90
25342;DHT22;13298;48.792;9.154;2023-03-03T04:02:46;1.20;99.90
25342;DHT22;13298;48.792;9.154;2023-03-03T04:05:12;1.20;99.90
25342;DHT22;13298;48.792;9.154;2023-03-03T04:07:38;1.20;99.90
25342;DHT22;13298;48.792;9.154;2023-03-03T04:10:04;1.20;99.90
25342;DHT22;13298;48.792;9.154;2023-03-03T04:12:30;1.30;99.90
25342;DHT22;13298;48.792;9.154;2023-03-03T04:15:06;1.30;99.90
25342;DHT22;13298;48.792;9.154;2023-03-03T04:17:36;1.30;99.90
25342;DHT22;13298;48.792;9.154;2023-03-03T04:20:03;1.40;99.90
25342;DHT22;13298;48.792;9.154;2023-03-03T04:22:29;1.30;99.90
25342;DHT22;13298;48.792;9.154;2023-03-03T04:25:01;1.40;99.90
25342;DHT22;13298;48.792;9.154;2023-03-03T04:27:30;1.40;99.90
25342;DHT22;13298;48.792;9.154;2023-03-03T04:29:57;1.40;99.90
25342;DHT22;13298;48.792;9.154;2023-03-03T04:32:22;1.50;99.90
25342;DHT22;13298;48.792;9.154;2023-03-03T04:34:48;1.50;99.90
25342;DHT22;13298;48.792;9.154;2023-03-03T04:37:14;1.50;99.90
25342;DHT22;13298;48.792;9.154;2023-03-03T04:39:39;1.60;99.90
25342;DHT22;13298;48.792;9.154;2023-03-03T04:42:05;1.60;99.90
25342;DHT22;13298;48.792;9.154;2023-03-03T04:44:31;1.60;99.90
25342;DHT22;13298;48.792;9.154;2023-03-03T04:46:56;1.60;99.90
25342;DHT22;13298;48.792;9.154;2023-03-03T04:49:22;1.60;99.90
25342;DHT22;13298;48.792;9.154;2023-03-03T04:51:48;1.60;99.90
25342;DHT22;13298;48.792;9.154;2023-03-03T04:54:13;1.60;99.90
25342;DHT22;13298;48.792;9.154;2023-03-03T04:56:39;1.60;99.90
25342;DHT22;13298;48.792;9.154;2023-03-03T04:59:05;1.70;99.90
25342;DHT22;13298;48.792;9.154;2023-03-03T05:01:30;1.70;99.90
25342;DHT22;13298;48.792;9.154;2023-03-03T05:03:56;1.70;99.90
25342;DHT22;13298;48.792;9.154;2023-03-03T05:06:22;1.70;99.90
25342;DHT22;13298;48.792;9.154;2023-03-03T05:08:48;1.70;99.90
25342;DHT22;13298;48.792;9.154;2023-03-03T05:11:14;1.60;99.90
25342;DHT22;13298;48.792;9.154;2023-03-03T05:13:40;1.60;99.90
25342;DHT22;13298;48.792;9.154;2023-03-03T05:16:06;1.60;99.90
25342;DHT22;13298;48.792;9.154;2023-03-03T05:18:32;1.60;99.90
25342;DHT22;13298;48.792;9.154;2023-03-03T05:20:57;1.70;99.90
25342;DHT22;13298;48.792;9.154;2023-03-03T05:23:23;1.70;99.90
25342;DHT22;13298;48.792;9.154;2023-03-03T05:25:49;1.60;99.90
25342;DHT22;13298;48.792;9.154;2023-03-03T05:28:16;1.60;99.90
25342;DHT22;13298;48.792;9.154;2023-03-03T05:30:42;1.60;99.90
25342;DHT22;13298;48.792;9.154;2023-03-03T05:33:12;1.60;99.90
25342;DHT22;13298;48.792;9.154;2023-03-03T05:35:38;1.60;99.90
25342;DHT22;13298;48.792;9.154;2023-03-03T05:38:04;1.60;99.90
25342;DHT22;13298;48.792;9.154;2023-03-03T05:40:30;1.70;99.90
25342;DHT22;13298;48.792;9.154;2023-03-03T05:42:56;1.70;99.90
25342;DHT22;13298;48.792;9.154;2023-03-03T05:45:22;1.70;99.90
25342;DHT22;13298;48.792;9.154;2023-03-03T05:47:49;1.70;99.90
25342;DHT22;13298;48.792;9.154;2023-03-03T05:50:16;1.70;99.90
25342;DHT22;13298;48.792;9.154;2023-03-03T05:52:43;1.80;99.90
25342;DHT22;13298;48.792;9.154;2023-03-03T05:55:09;1.80;99.90
25342;DHT22;13298;48.792;9.154;2023-03-03T05:57:35;1.80;99.90
25342;DHT22;13298;48.792;9.154;2023-03-03T06:00:03;1.70;99.90
25342;DHT22;13298;48.792;9.154;2023-03-03T06:02:30;1.80;99.90
25342;DHT22;13298;48.792;9.154;2023-03-03T06:04:56;1.70;99.90
25342;DHT22;13298;48.792;9.154;2023-03-03T06:07:22;1.70;99.90
25342;DHT22;13298;48.792;9.154;2023-03-03T06:09:47;1.80;99.90
25342;DHT22;13298;48.792;9.154;2023-03-03T06:12:13;1.80;99.90
25342;DHT22;13298;48.792;9.154;2023-03-03T06:14:39;1.80;99.90
25342;DHT22;13298;48.792;9.154;2023-03-03T06:17:04;1.80;99.90
25342;DHT22;13298;48.792;9.154;2023-03-03T06:19:30;1.80;99.90
25342;DHT22;13298;48.792;9.154;2023-03-03T06:21:56;1.80;99.90
25342;DHT22;13298;48.792;9.154;2023-03-03T06:24:22;1.80;99.90
25342;DHT22;13298;48.792;9.154;2023-03-03T06:26:50;1.80;99.90
25342;DHT22;13298;48.792;9.154;2023-03-03T06:29:16;1.80;99.90
25342;DHT22;13298;48.792;9.154;2023-03-03T06:31:42;1.80;99.90
25342;DHT22;13298;48.792;9.154;2023-03-03T06:34:08;1.80;99.90
25342;DHT22;13298;48.792;9.154;2023-03-03T06:36:33;1.90;99.90
25342;DHT22;13298;48.792;9.154;2023-03-03T06:38:59;1.90;99.90
25342;DHT22;13298;48.792;9.154;2023-03-03T06:41:25;1.90;99.90
25342;DHT22;13298;48.792;9.154;2023-03-03T06:43:51;1.90;99.90
25342;DHT22;13298;48.792;9.154;2023-03-03T06:46:17;1.90;99.90
25342;DHT22;13298;48.792;9.154;2023-03-03T06:48:42;2.00;99.90
25342;DHT22;13298;48.792;9.154;2023-03-03T06:51:23;2.00;99.90
25342;DHT22;13298;48.792;9.154;2023-03-03T06:53:56;2.00;99.90
25342;DHT22;13298;48.792;9.154;2023-03-03T06:56:26;2.00;99.90
25342;DHT22;13298;48.792;9.154;2023-03-03T06:58:57;2.10;99.90
25342;DHT22;13298;48.792;9.154;2023-03-03T07:01:24;2.10;99.90
25342;DHT22;13298;48.792;9.154;2023-03-03T07:03:50;2.10;99.90
25342;DHT22;13298;48.792;9.154;2023-03-03T07:06:22;2.20;99.90
25342;DHT22;13298;48.792;9.154;2023-03-03T07:08:50;2.30;99.90
25342;DHT22;13298;48.792;9.154;2023-03-03T07:11:19;2.30;99.90
25342;DHT22;13298;48.792;9.154;2023-03-03T07:13:51;2.40;99.90
25342;DHT22;13298;48.792;9.154;2023-03-03T07:16:18;2.40;99.90
25342;DHT22;13298;48.792;9.154;2023-03-03T07:18:52;2.50;99.90
25342;DHT22;13298;48.792;9.154;2023-03-03T07:23:57;2.60;99.90
25342;DHT22;13298;48.792;9.154;2023-03-03T07:26:28;2.60;99.90
25342;DHT22;13298;48.792;9.154;2023-03-03T07:31:47;2.70;99.90
25342;DHT22;13298;48.792;9.154;2023-03-03T07:37:10;2.80;99.90
25342;DHT22;13298;48.792;9.154;2023-03-03T07:39:44;2.90;99.90
25342;DHT22;13298;48.792;9.154;2023-03-03T07:42:26;3.10;99.90
25342;DHT22;13298;48.792;9.154;2023-03-03T07:44:56;3.20;99.90
25342;DHT22;13298;48.792;9.154;2023-03-03T07:47:28;3.30;99.90
25342;DHT22;13298;48.792;9.154;2023-03-03T07:50:12;3.40;99.90
25342;DHT22;13298;48.792;9.154;2023-03-03T07:52:42;3.50;99.90
25342;DHT22;13298;48.792;9.154;2023-03-03T07:55:37;3.60;99.90
25342;DHT22;13298;48.792;9.154;2023-03-03T08:04:16;3.90;99.90
25342;DHT22;13298;48.792;9.154;2023-03-03T08:06:48;4.00;99.90
25342;DHT22;13298;48.792;9.154;2023-03-03T08:11:54;4.20;99.90
25342;DHT22;13298;48.792;9.154;2023-03-03T08:14:27;4.30;99.90
25342;DHT22;13298;48.792;9.154;2023-03-03T08:16:56;4.40;99.90
25342;DHT22;13298;48.792;9.154;2023-03-03T08:19:22;4.40;99.90
25342;DHT22;13298;48.792;9.154;2023-03-03T08:21:48;4.50;99.90
25342;DHT22;13298;48.792;9.154;2023-03-03T08:24:14;4.50;99.90
25342;DHT22;13298;48.792;9.154;2023-03-03T08:26:40;4.40;99.90
25342;DHT22;13298;48.792;9.154;2023-03-03T08:29:06;4.30;99.90
25342;DHT22;13298;48.792;9.154;2023-03-03T08:31:31;4.20;99.90
25342;DHT22;13298;48.792;9.154;2023-03-03T08:33:57;4.30;99.90
25342;DHT22;13298;48.792;9.154;2023-03-03T08:36:23;4.30;99.90
25342;DHT22;13298;48.792;9.154;2023-03-03T08:38:49;4.30;99.90
25342;DHT22;13298;48.792;9.154;2023-03-03T08:41:14;4.30;99.90
25342;DHT22;13298;48.792;9.154;2023-03-03T08:43:40;4.40;99.90
25342;DHT22;13298;48.792;9.154;2023-03-03T08:46:06;4.30;99.90
25342;DHT22;13298;48.792;9.154;2023-03-03T08:48:34;4.20;99.90
25342;DHT22;13298;48.792;9.154;2023-03-03T08:51:00;4.20;99.90
25342;DHT22;13298;48.792;9.154;2023-03-03T08:53:26;4.10;99.90
25342;DHT22;13298;48.792;9.154;2023-03-03T08:55:52;4.10;99.90
25342;DHT22;13298;48.792;9.154;2023-03-03T08:58:19;4.10;99.90
25342;DHT22;13298;48.792;9.154;2023-03-03T09:00:46;4.20;99.90
25342;DHT22;13298;48.792;9.154;2023-03-03T09:03:11;4.20;99.90
25342;DHT22;13298;48.792;9.154;2023-03-03T09:05:38;4.30;99.90
25342;DHT22;13298;48.792;9.154;2023-03-03T09:08:05;4.30;99.90
25342;DHT22;13298;48.792;9.154;2023-03-03T09:10:33;4.20;99.90
25342;DHT22;13298;48.792;9.154;2023-03-03T09:13:06;4.30;99.90
25342;DHT22;13298;48.792;9.154;2023-03-03T09:15:37;4.30;99.90
25342;DHT22;13298;48.792;9.154;2023-03-03T09:18:19;4.40;99.90
25342;DHT22;13298;48.792;9.154;2023-03-03T09:20:55;4.50;99.90
25342;DHT22;13298;48.792;9.154;2023-03-03T09:23:30;4.50;99.90
25342;DHT22;13298;48.792;9.154;2023-03-03T09:26:18;4.60;99.90
25342;DHT22;13298;48.792;9.154;2023-03-03T09:28:51;4.70;99.90
25342;DHT22;13298;48.792;9.154;2023-03-03T09:31:43;4.60;99.90
25342;DHT22;13298;48.792;9.154;2023-03-03T09:37:21;4.70;99.90
25342;DHT22;13298;48.792;9.154;2023-03-03T09:39:49;5.00;99.90
25342;DHT22;13298;48.792;9.154;2023-03-03T09:45:16;5.60;99.90
25342;DHT22;13298;48.792;9.154;2023-03-03T09:56:30;6.30;99.90
25342;DHT22;13298;48.792;9.154;2023-03-03T09:59:20;6.40;99.90
25342;DHT22;13298;48.792;9.154;2023-03-03T10:04:52;6.60;99.90
25342;DHT22;13298;48.792;9.154;2023-03-03T10:10:43;6.90;99.90
25342;DHT22;13298;48.792;9.154;2023-03-03T10:16:30;7.30;99.90
25342;DHT22;13298;48.792;9.154;2023-03-03T10:22:45;7.50;99.90
25342;DHT22;13298;48.792;9.154;2023-03-03T10:25:39;7.70;99.90
25342;DHT22;13298;48.792;9.154;2023-03-03T10:31:29;7.80;99.90
25342;DHT22;13298;48.792;9.154;2023-03-03T10:40:35;7.60;99.90
25342;DHT22;13298;48.792;9.154;2023-03-03T10:43:33;7.60;99.90
25342;DHT22;13298;48.792;9.154;2023-03-03T10:46:40;7.50;99.90
25342;DHT22;13298;48.792;9.154;2023-03-03T10:49:44;7.40;99.90
25342;DHT22;13298;48.792;9.154;2023-03-03T11:07:13;7.00;99.90
25342;DHT22;13298;48.792;9.154;2023-03-03T11:10:04;6.90;99.90
25342;DHT22;13298;48.792;9.154;2023-03-03T11:12:51;7.00;99.90
25342;DHT22;13298;48.792;9.154;2023-03-03T11:15:38;7.00;99.90
25342;DHT22;13298;48.792;9.154;2023-03-03T11:18:10;7.10;99.90
25342;DHT22;13298;48.792;9.154;2023-03-03T11:33:14;8.60;99.90
25342;DHT22;13298;48.792;9.154;2023-03-03T11:36:19;8.90;99.90
25342;DHT22;13298;48.792;9.154;2023-03-03T11:38:56;8.90;99.90
25342;DHT22;13298;48.792;9.154;2023-03-03T11:44:36;9.20;99.90
25342;DHT22;13298;48.792;9.154;2023-03-03T11:49:59;9.50;99.90
25342;DHT22;13298;48.792;9.154;2023-03-03T11:52:49;9.50;99.90
25342;DHT22;13298;48.792;9.154;2023-03-03T11:55:29;9.50;99.90
25342;DHT22;13298;48.792;9.154;2023-03-03T11:58:19;9.40;99.90
25342;DHT22;13298;48.792;9.154;2023-03-03T12:01:26;9.40;99.90
25342;DHT22;13298;48.792;9.154;2023-03-03T12:10:13;9.70;99.90
25342;DHT22;13298;48.792;9.154;2023-03-03T12:13:04;9.80;99.90
25342;DHT22;13298;48.792;9.154;2023-03-03T12:15:40;9.60;99.90
25342;DHT22;13298;48.792;9.154;2023-03-03T12:18:32;9.30;99.90
25342;DHT22;13298;48.792;9.154;2023-03-03T12:21:23;9.20;99.90
25342;DHT22;13298;48.792;9.154;2023-03-03T12:24:09;9.00;99.90
25342;DHT22;13298;48.792;9.154;2023-03-03T12:32:42;8.40;99.90
25342;DHT22;13298;48.792;9.154;2023-03-03T12:40:45;7.90;99.90
25342;DHT22;13298;48.792;9.154;2023-03-03T12:53:19;7.70;99.90
25342;DHT22;13298;48.792;9.154;2023-03-03T12:55:59;7.60;99.90
25342;DHT22;13298;48.792;9.154;2023-03-03T13:04:46;7.50;99.90
25342;DHT22;13298;48.792;9.154;2023-03-03T13:11:00;7.50;99.90
25342;DHT22;13298;48.792;9.154;2023-03-03T13:17:14;7.40;99.90
25342;DHT22;13298;48.792;9.154;2023-03-03T13:19:59;7.40;99.90
25342;DHT22;13298;48.792;9.154;2023-03-03T13:22:49;7.50;99.90
25342;DHT22;13298;48.792;9.154;2023-03-03T13:25:47;7.60;99.90
25342;DHT22;13298;48.792;9.154;2023-03-03T13:31:02;7.70;99.90
25342;DHT22;13298;48.792;9.154;2023-03-03T13:33:57;7.70;99.90
25342;DHT22;13298;48.792;9.154;2023-03-03T13:36:34;7.70;99.90
25342;DHT22;13298;48.792;9.154;2023-03-03T13:39:41;7.70;99.90
25342;DHT22;13298;48.792;9.154;2023-03-03T13:42:40;7.70;99.90
25342;DHT22;13298;48.792;9.154;2023-03-03T13:54:26;7.80;99.90
25342;DHT22;13298;48.792;9.154;2023-03-03T14:03:10;7.90;99.90
25342;DHT22;13298;48.792;9.154;2023-03-03T14:05:45;7.90;99.90
25342;DHT22;13298;48.792;9.154;2023-03-03T14:17:25;8.00;99.90
25342;DHT22;13298;48.792;9.154;2023-03-03T14:20:19;8.10;99.90
25342;DHT22;13298;48.792;9.154;2023-03-03T14:22:58;8.10;99.90
25342;DHT22;13298;48.792;9.154;2023-03-03T14:25:26;8.10;99.90
25342;DHT22;13298;48.792;9.154;2023-03-03T14:28:16;8.10;99.90
25342;DHT22;13298;48.792;9.154;2023-03-03T14:30:43;8.10;99.90
25342;DHT22;13298;48.792;9.154;2023-03-03T14:38:23;8.10;99.90
25342;DHT22;13298;48.792;9.154;2023-03-03T14:41:20;8.00;99.90
25342;DHT22;13298;48.792;9.154;2023-03-03T14:44:01;8.00;99.90
25342;DHT22;13298;48.792;9.154;2023-03-03T14:47:15;8.00;99.90
25342;DHT22;13298;48.792;9.154;2023-03-03T14:49:43;8.00;99.90
25342;DHT22;13298;48.792;9.154;2023-03-03T14:55:07;8.00;99.90
25342;DHT22;13298;48.792;9.154;2023-03-03T14:57:39;7.90;99.90
25342;DHT22;13298;48.792;9.154;2023-03-03T15:03:19;7.90;99.90
25342;DHT22;13298;48.792;9.154;2023-03-03T15:05:53;7.90;99.90
25342;DHT22;13298;48.792;9.154;2023-03-03T15:08:26;7.90;99.90
25342;DHT22;13298;48.792;9.154;2023-03-03T15:11:12;8.00;99.90
25342;DHT22;13298;48.792;9.154;2023-03-03T15:13:42;8.00;99.90
25342;DHT22;13298;48.792;9.154;2023-03-03T15:16:22;8.00;99.90
25342;DHT22;13298;48.792;9.154;2023-03-03T15:19:33;7.90;99.90
25342;DHT22;13298;48.792;9.154;2023-03-03T15:22:40;7.90;99.90
25342;DHT22;13298;48.792;9.154;2023-03-03T15:25:39;7.90;99.90
25342;DHT22;13298;48.792;9.154;2023-03-03T15:36:34;7.80;99.90
25342;DHT22;13298;48.792;9.154;2023-03-03T15:42:42;7.60;99.90
25342;DHT22;13298;48.792;9.154;2023-03-03T15:51:06;7.60;99.90
25342;DHT22;13298;48.792;9.154;2023-03-03T15:53:52;7.50;99.90
25342;DHT22;13298;48.792;9.154;2023-03-03T15:56:47;7.50;99.90
25342;DHT22;13298;48.792;9.154;2023-03-03T16:01:59;7.40;99.90
25342;DHT22;13298;48.792;9.154;2023-03-03T16:04:36;7.40;99.90
25342;DHT22;13298;48.792;9.154;2023-03-03T16:10:16;7.30;99.90
25342;DHT22;13298;48.792;9.154;2023-03-03T16:27:51;7.00;99.90
25342;DHT22;13298;48.792;9.154;2023-03-03T16:30:50;6.90;99.90
25342;DHT22;13298;48.792;9.154;2023-03-03T16:33:26;6.80;99.90
25342;DHT22;13298;48.792;9.154;2023-03-03T16:39:14;6.60;99.90
25342;DHT22;13298;48.792;9.154;2023-03-03T16:42:09;6.60;99.90
25342;DHT22;13298;48.792;9.154;2023-03-03T16:45:27;6.50;99.90
25342;DHT22;13298;48.792;9.154;2023-03-03T16:50:57;6.30;99.90
25342;DHT22;13298;48.792;9.154;2023-03-03T16:53:53;6.20;99.90
25342;DHT22;13298;48.792;9.154;2023-03-03T16:56:48;6.20;99.90
25342;DHT22;13298;48.792;9.154;2023-03-03T17:02:45;6.00;99.90
25342;DHT22;13298;48.792;9.154;2023-03-03T17:05:42;5.90;99.90
25342;DHT22;13298;48.792;9.154;2023-03-03T17:08:26;5.80;99.90
25342;DHT22;13298;48.792;9.154;2023-03-03T17:11:31;5.70;99.90
25342;DHT22;13298;48.792;9.154;2023-03-03T17:14:36;5.60;99.90
25342;DHT22;13298;48.792;9.154;2023-03-03T17:17:42;5.50;99.90
25342;DHT22;13298;48.792;9.154;2023-03-03T17:23:41;5.40;99.90
25342;DHT22;13298;48.792;9.154;2023-03-03T17:29:59;5.20;99.90
25342;DHT22;13298;48.792;9.154;2023-03-03T17:32:38;5.10;99.90
25342;DHT22;13298;48.792;9.154;2023-03-03T17:38:23;4.90;99.90
25342;DHT22;13298;48.792;9.154;2023-03-03T17:46:54;4.60;99.90
25342;DHT22;13298;48.792;9.154;2023-03-03T17:52:41;4.50;99.90
25342;DHT22;13298;48.792;9.154;2023-03-03T18:01:39;4.40;99.90
25342;DHT22;13298;48.792;9.154;2023-03-03T18:10:15;4.30;99.90
25342;DHT22;13298;48.792;9.154;2023-03-03T18:19:16;4.10;99.90
25342;DHT22;13298;48.792;9.154;2023-03-03T18:22:08;4.00;99.90
25342;DHT22;13298;48.792;9.154;2023-03-03T18:24:38;3.90;99.90
25342;DHT22;13298;48.792;9.154;2023-03-03T18:27:26;3.90;99.90
25342;DHT22;13298;48.792;9.154;2023-03-03T18:35:24;3.90;99.90
25342;DHT22;13298;48.792;9.154;2023-03-03T18:37:51;3.90;99.90
25342;DHT22;13298;48.792;9.154;2023-03-03T18:42:57;4.00;99.90
25342;DHT22;13298;48.792;9.154;2023-03-03T18:48:08;4.00;99.90
25342;DHT22;13298;48.792;9.154;2023-03-03T18:53:19;3.80;99.90
25342;DHT22;13298;48.792;9.154;2023-03-03T18:55:55;3.80;99.90
25342;DHT22;13298;48.792;9.154;2023-03-03T18:58:42;3.80;99.90
25342;DHT22;13298;48.792;9.154;2023-03-03T19:04:14;3.80;99.90
25342;DHT22;13298;48.792;9.154;2023-03-03T19:09:10;3.60;99.90
25342;DHT22;13298;48.792;9.154;2023-03-03T19:11:41;3.60;99.90
25342;DHT22;13298;48.792;9.154;2023-03-03T19:16:54;3.40;99.90
25342;DHT22;13298;48.792;9.154;2023-03-03T19:19:29;3.40;99.90
25342;DHT22;13298;48.792;9.154;2023-03-03T19:22:26;3.30;99.90
25342;DHT22;13298;48.792;9.154;2023-03-03T19:27:49;3.20;99.90
25342;DHT22;13298;48.792;9.154;2023-03-03T19:30:34;3.20;99.90
25342;DHT22;13298;48.792;9.154;2023-03-03T19:36:18;3.20;99.90
25342;DHT22;13298;48.792;9.154;2023-03-03T19:39:02;3.20;99.90
25342;DHT22;13298;48.792;9.154;2023-03-03T19:42:02;3.20;99.90
25342;DHT22;13298;48.792;9.154;2023-03-03T19:54:15;3.20;99.90
25342;DHT22;13298;48.792;9.154;2023-03-03T19:56:55;3.20;99.90
25342;DHT22;13298;48.792;9.154;2023-03-03T19:59:51;3.20;99.90
25342;DHT22;13298;48.792;9.154;2023-03-03T20:02:40;3.10;99.90
25342;DHT22;13298;48.792;9.154;2023-03-03T20:08:17;3.10;99.90
25342;DHT22;13298;48.792;9.154;2023-03-03T20:11:08;3.10;99.90
25342;DHT22;13298;48.792;9.154;2023-03-03T20:13:56;3.10;99.90
25342;DHT22;13298;48.792;9.154;2023-03-03T20:16:37;3.10;99.90
25342;DHT22;13298;48.792;9.154;2023-03-03T20:24:39;3.00;99.90
25342;DHT22;13298;48.792;9.154;2023-03-03T20:27:23;3.00;99.90
25342;DHT22;13298;48.792;9.154;2023-03-03T20:42:38;2.90;99.90
25342;DHT22;13298;48.792;9.154;2023-03-03T20:45:17;2.90;99.90
25342;DHT22;13298;48.792;9.154;2023-03-03T20:48:10;2.90;99.90
25342;DHT22;13298;48.792;9.154;2023-03-03T20:51:08;2.80;99.90
25342;DHT22;13298;48.792;9.154;2023-03-03T20:56:42;2.80;99.90
25342;DHT22;13298;48.792;9.154;2023-03-03T21:08:10;2.70;99.90
25342;DHT22;13298;48.792;9.154;2023-03-03T21:10:36;2.60;99.90
25342;DHT22;13298;48.792;9.154;2023-03-03T21:13:35;2.50;99.90
25342;DHT22;13298;48.792;9.154;2023-03-03T21:19:08;2.50;99.90
25342;DHT22;13298;48.792;9.154;2023-03-03T21:21:40;2.50;99.90
25342;DHT22;13298;48.792;9.154;2023-03-03T21:24:10;2.50;99.90
25342;DHT22;13298;48.792;9.154;2023-03-03T21:26:57;2.50;99.90
25342;DHT22;13298;48.792;9.154;2023-03-03T21:29:28;2.50;99.90
25342;DHT22;13298;48.792;9.154;2023-03-03T21:34:31;2.40;99.90
25342;DHT22;13298;48.792;9.154;2023-03-03T21:37:03;2.40;99.90
25342;DHT22;13298;48.792;9.154;2023-03-03T21:39:34;2.40;99.90
25342;DHT22;13298;48.792;9.154;2023-03-03T21:44:51;2.30;99.90
25342;DHT22;13298;48.792;9.154;2023-03-03T21:47:19;2.20;99.90
25342;DHT22;13298;48.792;9.154;2023-03-03T21:49:50;2.20;99.90
25342;DHT22;13298;48.792;9.154;2023-03-03T21:52:18;2.10;99.90
25342;DHT22;13298;48.792;9.154;2023-03-03T21:54:47;2.10;99.90
25342;DHT22;13298;48.792;9.154;2023-03-03T21:57:14;2.00;99.90
25342;DHT22;13298;48.792;9.154;2023-03-03T21:59:40;2.10;99.90
25342;DHT22;13298;48.792;9.154;2023-03-03T22:02:06;2.10;99.90
25342;DHT22;13298;48.792;9.154;2023-03-03T22:04:32;2.10;99.90
25342;DHT22;13298;48.792;9.154;2023-03-03T22:06:58;2.10;99.90
25342;DHT22;13298;48.792;9.154;2023-03-03T22:09:25;2.10;99.90
25342;DHT22;13298;48.792;9.154;2023-03-03T22:11:50;2.10;99.90